sensor_id;sensor_type;location;lat;lon;timestamp;P1;durP1;ratioP1;P2;durP2;ratioP2
16892;SDS011;8563;52.242;9.098;2023-04-12T00:01:13;4.43;;;1.63;;
16892;SDS011;8563;52.242;9.098;2023-04-12T00:03:45;4.37;;;1.30;;
16892;SDS011;8563;52.242;9.098;2023-04-12T00:06:19;6.33;;;1.40;;
16892;SDS011;8563;52.242;9.098;2023-04-12T00:08:56;3.47;;;1.10;;
16892;SDS011;8563;52.242;9.098;2023-04-12T00:11:29;5.03;;;1.30;;
16892;SDS011;8563;52.242;9.098;2023-04-12T00:14:02;3.73;;;1.37;;
16892;SDS011;8563;52.242;9.098;2023-04-12T00:16:35;5.63;;;1.53;;
16892;SDS011;8563;52.242;9.098;2023-04-12T00:19:08;3.53;;;1.50;;
16892;SDS011;8563;52.242;9.098;2023-04-12T00:21:40;2.47;;;1.10;;
16892;SDS011;8563;52.242;9.098;2023-04-12T00:24:12;4.60;;;1.13;;
16892;SDS011;8563;52.242;9.098;2023-04-12T00:26:44;3.50;;;1.27;;
16892;SDS011;8563;52.242;9.098;2023-04-12T00:29:17;5.87;;;1.43;;
16892;SDS011;8563;52.242;9.098;2023-04-12T00:31:53;5.67;;;0.90;;
16892;SDS011;8563;52.242;9.098;2023-04-12T00:34:26;6.37;;;1.20;;
16892;SDS011;8563;52.242;9.098;2023-04-12T00:36:58;2.20;;;1.00;;
16892;SDS011;8563;52.242;9.098;2023-04-12T00:39:31;3.73;;;1.20;;
16892;SDS011;8563;52.242;9.098;2023-04-12T00:42:03;3.90;;;1.43;;
16892;SDS011;8563;52.242;9.098;2023-04-12T00:44:36;3.47;;;1.23;;
16892;SDS011;8563;52.242;9.098;2023-04-12T00:47:10;3.30;;;1.20;;
16892;SDS011;8563;52.242;9.098;2023-04-12T00:49:42;2.70;;;1.23;;
16892;SDS011;8563;52.242;9.098;2023-04-12T00:52:15;6.17;;;1.20;;
16892;SDS011;8563;52.242;9.098;2023-04-12T00:54:47;2.90;;;1.00;;
16892;SDS011;8563;52.242;9.098;2023-04-12T00:57:21;4.70;;;1.20;;
16892;SDS011;8563;52.242;9.098;2023-04-12T00:59:53;5.27;;;1.47;;
16892;SDS011;8563;52.242;9.098;2023-04-12T01:02:27;3.73;;;1.20;;
16892;SDS011;8563;52.242;9.098;2023-04-12T01:04:59;4.67;;;1.23;;
16892;SDS011;8563;52.242;9.098;2023-04-12T01:07:34;3.60;;;1.27;;
16892;SDS011;8563;52.242;9.098;2023-04-12T01:10:19;2.63;;;1.00;;
16892;SDS011;8563;52.242;9.098;2023-04-12T01:13:04;6.70;;;1.50;;
16892;SDS011;8563;52.242;9.098;2023-04-12T01:15:46;5.23;;;1.03;;
16892;SDS011;8563;52.242;9.098;2023-04-12T01:18:27;3.13;;;1.00;;
16892;SDS011;8563;52.242;9.098;2023-04-12T01:21:04;3.73;;;1.20;;
16892;SDS011;8563;52.242;9.098;2023-04-12T01:23:43;4.03;;;1.17;;
16892;SDS011;8563;52.242;9.098;2023-04-12T01:26:35;3.40;;;1.10;;
16892;SDS011;8563;52.242;9.098;2023-04-12T01:29:13;3.40;;;1.10;;
16892;SDS011;8563;52.242;9.098;2023-04-12T01:31:48;4.73;;;1.30;;
16892;SDS011;8563;52.242;9.098;2023-04-12T01:34:27;3.83;;;1.20;;
16892;SDS011;8563;52.242;9.098;2023-04-12T01:37:02;4.83;;;1.13;;
16892;SDS011;8563;52.242;9.098;2023-04-12T01:39:35;4.70;;;1.20;;
16892;SDS011;8563;52.242;9.098;2023-04-12T01:42:07;4.97;;;1.20;;
16892;SDS011;8563;52.242;9.098;2023-04-12T01:44:41;3.40;;;1.30;;
16892;SDS011;8563;52.242;9.098;2023-04-12T01:47:14;5.13;;;1.30;;
16892;SDS011;8563;52.242;9.098;2023-04-12T01:49:48;7.47;;;1.63;;
16892;SDS011;8563;52.242;9.098;2023-04-12T01:52:30;4.60;;;1.40;;
16892;SDS011;8563;52.242;9.098;2023-04-12T01:55:06;6.80;;;1.30;;
16892;SDS011;8563;52.242;9.098;2023-04-12T01:57:41;5.50;;;1.23;;
16892;SDS011;8563;52.242;9.098;2023-04-12T02:00:17;6.20;;;1.43;;
16892;SDS011;8563;52.242;9.098;2023-04-12T02:02:51;4.73;;;1.87;;
16892;SDS011;8563;52.242;9.098;2023-04-12T02:05:24;5.87;;;1.57;;
16892;SDS011;8563;52.242;9.098;2023-04-12T02:07:56;6.10;;;1.43;;
16892;SDS011;8563;52.242;9.098;2023-04-12T02:10:29;5.00;;;1.30;;
16892;SDS011;8563;52.242;9.098;2023-04-12T02:13:02;4.97;;;1.20;;
16892;SDS011;8563;52.242;9.098;2023-04-12T02:15:35;7.00;;;1.67;;
16892;SDS011;8563;52.242;9.098;2023-04-12T02:18:09;6.37;;;1.50;;
16892;SDS011;8563;52.242;9.098;2023-04-12T02:20:44;4.20;;;1.27;;
16892;SDS011;8563;52.242;9.098;2023-04-12T02:23:16;5.23;;;1.53;;
16892;SDS011;8563;52.242;9.098;2023-04-12T02:25:48;5.97;;;1.60;;
16892;SDS011;8563;52.242;9.098;2023-04-12T02:28:21;4.47;;;1.30;;
16892;SDS011;8563;52.242;9.098;2023-04-12T02:30:54;5.90;;;1.73;;
16892;SDS011;8563;52.242;9.098;2023-04-12T02:33:28;4.00;;;1.43;;
16892;SDS011;8563;52.242;9.098;2023-04-12T02:36:02;4.50;;;1.53;;
16892;SDS011;8563;52.242;9.098;2023-04-12T02:38:39;3.67;;;1.40;;
16892;SDS011;8563;52.242;9.098;2023-04-12T02:41:15;4.30;;;1.23;;
16892;SDS011;8563;52.242;9.098;2023-04-12T02:43:48;4.30;;;1.40;;
16892;SDS011;8563;52.242;9.098;2023-04-12T02:46:22;6.67;;;1.80;;
16892;SDS011;8563;52.242;9.098;2023-04-12T02:49:01;5.30;;;1.47;;
16892;SDS011;8563;52.242;9.098;2023-04-12T02:51:41;8.80;;;1.57;;
16892;SDS011;8563;52.242;9.098;2023-04-12T02:54:14;6.27;;;1.50;;
16892;SDS011;8563;52.242;9.098;2023-04-12T02:56:56;6.77;;;1.63;;
16892;SDS011;8563;52.242;9.098;2023-04-12T02:59:37;7.73;;;1.20;;
16892;SDS011;8563;52.242;9.098;2023-04-12T03:02:23;3.53;;;1.20;;
16892;SDS011;8563;52.242;9.098;2023-04-12T03:05:01;3.50;;;1.43;;
16892;SDS011;8563;52.242;9.098;2023-04-12T03:07:52;7.13;;;1.30;;
16892;SDS011;8563;52.242;9.098;2023-04-12T03:10:30;6.33;;;1.40;;
16892;SDS011;8563;52.242;9.098;2023-04-12T03:13:06;6.33;;;1.23;;
16892;SDS011;8563;52.242;9.098;2023-04-12T03:18:19;5.63;;;1.70;;
16892;SDS011;8563;52.242;9.098;2023-04-12T03:20:53;3.80;;;1.33;;
16892;SDS011;8563;52.242;9.098;2023-04-12T03:23:25;4.67;;;1.17;;
16892;SDS011;8563;52.242;9.098;2023-04-12T03:26:18;4.93;;;1.10;;
16892;SDS011;8563;52.242;9.098;2023-04-12T03:29:05;5.30;;;1.50;;
16892;SDS011;8563;52.242;9.098;2023-04-12T03:31:40;5.47;;;1.30;;
16892;SDS011;8563;52.242;9.098;2023-04-12T03:34:14;5.67;;;1.50;;
16892;SDS011;8563;52.242;9.098;2023-04-12T03:36:51;3.93;;;1.47;;
16892;SDS011;8563;52.242;9.098;2023-04-12T03:39:30;4.77;;;1.00;;
16892;SDS011;8563;52.242;9.098;2023-04-12T03:42:03;4.60;;;1.60;;
16892;SDS011;8563;52.242;9.098;2023-04-12T03:44:35;4.50;;;1.27;;
16892;SDS011;8563;52.242;9.098;2023-04-12T03:47:13;2.90;;;1.17;;
16892;SDS011;8563;52.242;9.098;2023-04-12T03:49:47;3.50;;;1.30;;
16892;SDS011;8563;52.242;9.098;2023-04-12T03:52:20;6.57;;;1.50;;
16892;SDS011;8563;52.242;9.098;2023-04-12T03:54:52;7.50;;;1.67;;
16892;SDS011;8563;52.242;9.098;2023-04-12T03:57:30;5.30;;;1.50;;
16892;SDS011;8563;52.242;9.098;2023-04-12T04:00:02;4.07;;;1.17;;
16892;SDS011;8563;52.242;9.098;2023-04-12T04:02:48;6.90;;;1.30;;
16892;SDS011;8563;52.242;9.098;2023-04-12T04:05:24;6.77;;;1.47;;
16892;SDS011;8563;52.242;9.098;2023-04-12T04:07:57;4.13;;;1.33;;
16892;SDS011;8563;52.242;9.098;2023-04-12T04:10:33;6.77;;;1.53;;
16892;SDS011;8563;52.242;9.098;2023-04-12T04:13:05;3.90;;;1.50;;
16892;SDS011;8563;52.242;9.098;2023-04-12T04:15:37;4.23;;;1.17;;
16892;SDS011;8563;52.242;9.098;2023-04-12T04:18:10;5.83;;;1.63;;
16892;SDS011;8563;52.242;9.098;2023-04-12T04:20:43;4.77;;;1.37;;
16892;SDS011;8563;52.242;9.098;2023-04-12T04:23:16;4.73;;;1.33;;
16892;SDS011;8563;52.242;9.098;2023-04-12T04:25:48;4.73;;;1.37;;
16892;SDS011;8563;52.242;9.098;2023-04-12T04:28:23;7.53;;;1.40;;
16892;SDS011;8563;52.242;9.098;2023-04-12T04:30:55;5.10;;;1.13;;
16892;SDS011;8563;52.242;9.098;2023-04-12T04:33:34;3.87;;;1.37;;
16892;SDS011;8563;52.242;9.098;2023-04-12T04:36:09;6.43;;;1.40;;
16892;SDS011;8563;52.242;9.098;2023-04-12T04:38:46;6.70;;;1.30;;
16892;SDS011;8563;52.242;9.098;2023-04-12T04:41:29;5.13;;;1.67;;
16892;SDS011;8563;52.242;9.098;2023-04-12T04:44:04;5.90;;;1.27;;
16892;SDS011;8563;52.242;9.098;2023-04-12T04:46:40;3.07;;;1.30;;
16892;SDS011;8563;52.242;9.098;2023-04-12T04:49:13;3.73;;;1.20;;
16892;SDS011;8563;52.242;9.098;2023-04-12T04:51:46;5.70;;;1.20;;
16892;SDS011;8563;52.242;9.098;2023-04-12T04:54:19;3.53;;;1.20;;
16892;SDS011;8563;52.242;9.098;2023-04-12T04:56:51;4.40;;;1.50;;
16892;SDS011;8563;52.242;9.098;2023-04-12T04:59:24;3.57;;;1.27;;
16892;SDS011;8563;52.242;9.098;2023-04-12T05:02:04;6.03;;;1.23;;
16892;SDS011;8563;52.242;9.098;2023-04-12T05:04:37;5.10;;;1.37;;
16892;SDS011;8563;52.242;9.098;2023-04-12T05:07:12;3.20;;;1.40;;
16892;SDS011;8563;52.242;9.098;2023-04-12T05:09:47;7.77;;;1.50;;
16892;SDS011;8563;52.242;9.098;2023-04-12T05:12:22;7.70;;;1.73;;
16892;SDS011;8563;52.242;9.098;2023-04-12T05:14:58;6.13;;;1.40;;
16892;SDS011;8563;52.242;9.098;2023-04-12T05:17:31;3.70;;;1.20;;
16892;SDS011;8563;52.242;9.098;2023-04-12T05:20:04;5.13;;;1.50;;
16892;SDS011;8563;52.242;9.098;2023-04-12T05:22:39;6.13;;;1.23;;
16892;SDS011;8563;52.242;9.098;2023-04-12T05:25:11;5.23;;;1.70;;
16892;SDS011;8563;52.242;9.098;2023-04-12T05:27:50;6.07;;;1.30;;
16892;SDS011;8563;52.242;9.098;2023-04-12T05:30:24;7.13;;;1.50;;
16892;SDS011;8563;52.242;9.098;2023-04-12T05:32:56;4.57;;;1.33;;
16892;SDS011;8563;52.242;9.098;2023-04-12T05:35:29;6.70;;;2.03;;
16892;SDS011;8563;52.242;9.098;2023-04-12T05:38:04;5.97;;;1.47;;
16892;SDS011;8563;52.242;9.098;2023-04-12T05:40:37;3.60;;;1.37;;
16892;SDS011;8563;52.242;9.098;2023-04-12T05:43:11;4.83;;;1.63;;
16892;SDS011;8563;52.242;9.098;2023-04-12T05:45:44;4.10;;;1.57;;
16892;SDS011;8563;52.242;9.098;2023-04-12T05:48:16;7.27;;;1.27;;
16892;SDS011;8563;52.242;9.098;2023-04-12T05:50:50;5.77;;;1.40;;
16892;SDS011;8563;52.242;9.098;2023-04-12T05:53:24;8.20;;;2.50;;
16892;SDS011;8563;52.242;9.098;2023-04-12T05:56:00;7.20;;;1.17;;
16892;SDS011;8563;52.242;9.098;2023-04-12T05:58:33;4.37;;;1.27;;
16892;SDS011;8563;52.242;9.098;2023-04-12T06:01:05;5.40;;;1.33;;
16892;SDS011;8563;52.242;9.098;2023-04-12T06:03:37;6.87;;;1.53;;
16892;SDS011;8563;52.242;9.098;2023-04-12T06:06:14;4.27;;;1.60;;
16892;SDS011;8563;52.242;9.098;2023-04-12T06:08:48;4.87;;;1.60;;
16892;SDS011;8563;52.242;9.098;2023-04-12T06:11:20;6.33;;;1.70;;
16892;SDS011;8563;52.242;9.098;2023-04-12T06:13:53;4.97;;;1.40;;
16892;SDS011;8563;52.242;9.098;2023-04-12T06:16:26;3.53;;;1.00;;
16892;SDS011;8563;52.242;9.098;2023-04-12T06:18:58;3.00;;;1.33;;
16892;SDS011;8563;52.242;9.098;2023-04-12T06:21:31;6.17;;;1.80;;
16892;SDS011;8563;52.242;9.098;2023-04-12T06:24:05;4.60;;;1.60;;
16892;SDS011;8563;52.242;9.098;2023-04-12T06:26:38;2.97;;;1.33;;
16892;SDS011;8563;52.242;9.098;2023-04-12T06:29:12;3.57;;;1.40;;
16892;SDS011;8563;52.242;9.098;2023-04-12T06:31:45;3.87;;;1.23;;
16892;SDS011;8563;52.242;9.098;2023-04-12T06:34:18;3.83;;;1.40;;
16892;SDS011;8563;52.242;9.098;2023-04-12T06:36:50;2.67;;;1.37;;
16892;SDS011;8563;52.242;9.098;2023-04-12T06:39:24;2.83;;;1.47;;
16892;SDS011;8563;52.242;9.098;2023-04-12T06:41:56;4.80;;;1.40;;
16892;SDS011;8563;52.242;9.098;2023-04-12T06:44:28;5.33;;;1.20;;
16892;SDS011;8563;52.242;9.098;2023-04-12T06:47:02;6.27;;;1.27;;
16892;SDS011;8563;52.242;9.098;2023-04-12T06:49:34;5.87;;;1.47;;
16892;SDS011;8563;52.242;9.098;2023-04-12T06:52:06;2.67;;;0.90;;
16892;SDS011;8563;52.242;9.098;2023-04-12T06:54:40;3.73;;;1.33;;
16892;SDS011;8563;52.242;9.098;2023-04-12T06:57:13;2.87;;;1.17;;
16892;SDS011;8563;52.242;9.098;2023-04-12T06:59:45;2.57;;;1.10;;
16892;SDS011;8563;52.242;9.098;2023-04-12T07:02:17;2.00;;;1.17;;
16892;SDS011;8563;52.242;9.098;2023-04-12T07:04:50;2.70;;;1.20;;
16892;SDS011;8563;52.242;9.098;2023-04-12T07:07:23;5.10;;;1.67;;
16892;SDS011;8563;52.242;9.098;2023-04-12T07:09:57;5.03;;;1.20;;
16892;SDS011;8563;52.242;9.098;2023-04-12T07:12:31;3.13;;;1.37;;
16892;SDS011;8563;52.242;9.098;2023-04-12T07:15:03;4.73;;;1.33;;
16892;SDS011;8563;52.242;9.098;2023-04-12T07:17:36;4.13;;;1.30;;
16892;SDS011;8563;52.242;9.098;2023-04-12T07:20:08;3.00;;;1.00;;
16892;SDS011;8563;52.242;9.098;2023-04-12T07:22:41;3.43;;;1.33;;
16892;SDS011;8563;52.242;9.098;2023-04-12T07:25:15;3.93;;;1.03;;
16892;SDS011;8563;52.242;9.098;2023-04-12T07:27:47;3.60;;;1.10;;
16892;SDS011;8563;52.242;9.098;2023-04-12T07:30:19;3.23;;;1.07;;
16892;SDS011;8563;52.242;9.098;2023-04-12T07:32:53;3.83;;;1.30;;
16892;SDS011;8563;52.242;9.098;2023-04-12T07:35:25;1.87;;;0.80;;
16892;SDS011;8563;52.242;9.098;2023-04-12T07:37:58;2.60;;;1.10;;
16892;SDS011;8563;52.242;9.098;2023-04-12T07:40:32;1.97;;;1.00;;
16892;SDS011;8563;52.242;9.098;2023-04-12T07:43:04;3.17;;;1.23;;
16892;SDS011;8563;52.242;9.098;2023-04-12T07:45:36;1.87;;;0.87;;
16892;SDS011;8563;52.242;9.098;2023-04-12T07:48:08;3.23;;;0.80;;
16892;SDS011;8563;52.242;9.098;2023-04-12T07:50:41;2.87;;;0.73;;
16892;SDS011;8563;52.242;9.098;2023-04-12T07:53:17;2.13;;;0.87;;
16892;SDS011;8563;52.242;9.098;2023-04-12T07:55:52;1.73;;;0.80;;
16892;SDS011;8563;52.242;9.098;2023-04-12T07:58:24;4.47;;;1.00;;
16892;SDS011;8563;52.242;9.098;2023-04-12T08:00:56;2.47;;;0.93;;
16892;SDS011;8563;52.242;9.098;2023-04-12T08:03:28;2.00;;;1.10;;
16892;SDS011;8563;52.242;9.098;2023-04-12T08:06:01;2.20;;;0.77;;
16892;SDS011;8563;52.242;9.098;2023-04-12T08:08:33;2.47;;;0.80;;
16892;SDS011;8563;52.242;9.098;2023-04-12T08:11:07;2.50;;;0.70;;
16892;SDS011;8563;52.242;9.098;2023-04-12T08:13:39;2.70;;;1.03;;
16892;SDS011;8563;52.242;9.098;2023-04-12T08:16:11;1.80;;;0.80;;
16892;SDS011;8563;52.242;9.098;2023-04-12T08:18:43;1.97;;;0.90;;
16892;SDS011;8563;52.242;9.098;2023-04-12T08:21:15;2.40;;;0.93;;
16892;SDS011;8563;52.242;9.098;2023-04-12T08:23:48;3.53;;;1.00;;
16892;SDS011;8563;52.242;9.098;2023-04-12T08:26:22;2.00;;;0.80;;
16892;SDS011;8563;52.242;9.098;2023-04-12T08:28:55;2.30;;;0.80;;
16892;SDS011;8563;52.242;9.098;2023-04-12T08:31:27;1.80;;;0.97;;
16892;SDS011;8563;52.242;9.098;2023-04-12T08:34:00;2.73;;;0.90;;
16892;SDS011;8563;52.242;9.098;2023-04-12T08:36:32;2.53;;;0.93;;
16892;SDS011;8563;52.242;9.098;2023-04-12T08:39:04;2.50;;;1.00;;
16892;SDS011;8563;52.242;9.098;2023-04-12T08:41:38;1.20;;;0.80;;
16892;SDS011;8563;52.242;9.098;2023-04-12T08:44:10;2.53;;;1.10;;
16892;SDS011;8563;52.242;9.098;2023-04-12T08:46:43;2.17;;;1.20;;
16892;SDS011;8563;52.242;9.098;2023-04-12T08:49:16;3.00;;;0.90;;
16892;SDS011;8563;52.242;9.098;2023-04-12T08:51:48;1.10;;;0.77;;
16892;SDS011;8563;52.242;9.098;2023-04-12T08:54:20;2.20;;;1.00;;
16892;SDS011;8563;52.242;9.098;2023-04-12T08:56:54;2.33;;;0.90;;
16892;SDS011;8563;52.242;9.098;2023-04-12T08:59:28;2.93;;;1.20;;
16892;SDS011;8563;52.242;9.098;2023-04-12T09:02:01;6.67;;;1.17;;
16892;SDS011;8563;52.242;9.098;2023-04-12T09:04:33;3.77;;;1.10;;
16892;SDS011;8563;52.242;9.098;2023-04-12T09:07:24;2.00;;;0.90;;
16892;SDS011;8563;52.242;9.098;2023-04-12T09:09:58;2.07;;;0.90;;
16892;SDS011;8563;52.242;9.098;2023-04-12T09:12:31;3.27;;;1.20;;
16892;SDS011;8563;52.242;9.098;2023-04-12T09:15:04;1.47;;;0.80;;
16892;SDS011;8563;52.242;9.098;2023-04-12T09:17:39;1.70;;;0.80;;
16892;SDS011;8563;52.242;9.098;2023-04-12T09:20:20;1.47;;;0.90;;
16892;SDS011;8563;52.242;9.098;2023-04-12T09:22:54;2.90;;;1.10;;
16892;SDS011;8563;52.242;9.098;2023-04-12T09:25:37;3.33;;;0.80;;
16892;SDS011;8563;52.242;9.098;2023-04-12T09:28:19;2.40;;;0.93;;
16892;SDS011;8563;52.242;9.098;2023-04-12T09:30:53;4.77;;;1.00;;
16892;SDS011;8563;52.242;9.098;2023-04-12T09:33:33;4.30;;;1.03;;
16892;SDS011;8563;52.242;9.098;2023-04-12T09:36:07;1.67;;;0.80;;
16892;SDS011;8563;52.242;9.098;2023-04-12T09:38:57;2.67;;;0.97;;
16892;SDS011;8563;52.242;9.098;2023-04-12T09:41:31;1.60;;;0.73;;
16892;SDS011;8563;52.242;9.098;2023-04-12T09:44:04;2.07;;;1.10;;
16892;SDS011;8563;52.242;9.098;2023-04-12T09:46:42;1.73;;;1.00;;
16892;SDS011;8563;52.242;9.098;2023-04-12T09:49:34;1.47;;;1.07;;
16892;SDS011;8563;52.242;9.098;2023-04-12T09:52:07;1.10;;;0.70;;
16892;SDS011;8563;52.242;9.098;2023-04-12T09:54:41;1.40;;;0.90;;
16892;SDS011;8563;52.242;9.098;2023-04-12T09:57:15;1.60;;;0.73;;
16892;SDS011;8563;52.242;9.098;2023-04-12T09:59:51;2.83;;;1.27;;
16892;SDS011;8563;52.242;9.098;2023-04-12T10:02:27;1.17;;;0.77;;
16892;SDS011;8563;52.242;9.098;2023-04-12T10:05:01;3.53;;;1.00;;
16892;SDS011;8563;52.242;9.098;2023-04-12T10:07:34;1.87;;;0.90;;
16892;SDS011;8563;52.242;9.098;2023-04-12T10:10:07;1.30;;;0.80;;
16892;SDS011;8563;52.242;9.098;2023-04-12T10:12:42;2.90;;;0.80;;
16892;SDS011;8563;52.242;9.098;2023-04-12T10:15:17;1.67;;;0.77;;
16892;SDS011;8563;52.242;9.098;2023-04-12T10:17:55;1.97;;;0.80;;
16892;SDS011;8563;52.242;9.098;2023-04-12T10:20:27;1.70;;;0.90;;
16892;SDS011;8563;52.242;9.098;2023-04-12T10:23:00;1.93;;;0.80;;
16892;SDS011;8563;52.242;9.098;2023-04-12T10:25:33;1.27;;;0.73;;
16892;SDS011;8563;52.242;9.098;2023-04-12T10:28:15;3.03;;;0.70;;
16892;SDS011;8563;52.242;9.098;2023-04-12T10:30:49;2.13;;;0.70;;
16892;SDS011;8563;52.242;9.098;2023-04-12T10:33:24;1.43;;;0.70;;
16892;SDS011;8563;52.242;9.098;2023-04-12T10:35:57;0.80;;;0.70;;
16892;SDS011;8563;52.242;9.098;2023-04-12T10:38:44;1.77;;;1.10;;
16892;SDS011;8563;52.242;9.098;2023-04-12T10:41:17;2.10;;;0.90;;
16892;SDS011;8563;52.242;9.098;2023-04-12T10:43:50;1.43;;;0.80;;
16892;SDS011;8563;52.242;9.098;2023-04-12T10:49:20;1.60;;;0.80;;
16892;SDS011;8563;52.242;9.098;2023-04-12T10:52:09;1.53;;;0.80;;
16892;SDS011;8563;52.242;9.098;2023-04-12T10:54:44;1.77;;;1.00;;
16892;SDS011;8563;52.242;9.098;2023-04-12T11:00:13;1.30;;;0.97;;
16892;SDS011;8563;52.242;9.098;2023-04-12T11:03:06;2.00;;;0.80;;
16892;SDS011;8563;52.242;9.098;2023-04-12T11:05:56;1.63;;;0.90;;
16892;SDS011;8563;52.242;9.098;2023-04-12T11:08:48;1.30;;;0.60;;
16892;SDS011;8563;52.242;9.098;2023-04-12T11:11:28;1.07;;;0.70;;
16892;SDS011;8563;52.242;9.098;2023-04-12T11:14:05;1.50;;;0.70;;
16892;SDS011;8563;52.242;9.098;2023-04-12T11:19:57;1.60;;;0.80;;
16892;SDS011;8563;52.242;9.098;2023-04-12T11:22:31;0.80;;;0.60;;
16892;SDS011;8563;52.242;9.098;2023-04-12T11:25:05;1.13;;;0.70;;
16892;SDS011;8563;52.242;9.098;2023-04-12T11:27:38;2.07;;;0.70;;
16892;SDS011;8563;52.242;9.098;2023-04-12T11:30:10;1.23;;;0.80;;
16892;SDS011;8563;52.242;9.098;2023-04-12T11:32:43;1.73;;;0.87;;
16892;SDS011;8563;52.242;9.098;2023-04-12T11:35:17;2.53;;;0.80;;
16892;SDS011;8563;52.242;9.098;2023-04-12T11:37:56;0.70;;;0.60;;
16892;SDS011;8563;52.242;9.098;2023-04-12T11:40:29;3.33;;;0.73;;
16892;SDS011;8563;52.242;9.098;2023-04-12T11:43:02;1.20;;;0.87;;
16892;SDS011;8563;52.242;9.098;2023-04-12T11:45:34;1.30;;;0.80;;
16892;SDS011;8563;52.242;9.098;2023-04-12T11:48:06;2.00;;;0.60;;
16892;SDS011;8563;52.242;9.098;2023-04-12T11:50:40;2.80;;;0.87;;
16892;SDS011;8563;52.242;9.098;2023-04-12T11:53:12;0.63;;;0.60;;
16892;SDS011;8563;52.242;9.098;2023-04-12T11:55:47;1.17;;;0.80;;
16892;SDS011;8563;52.242;9.098;2023-04-12T11:58:21;1.13;;;0.70;;
16892;SDS011;8563;52.242;9.098;2023-04-12T12:00:54;1.47;;;0.80;;
16892;SDS011;8563;52.242;9.098;2023-04-12T12:03:27;1.17;;;0.90;;
16892;SDS011;8563;52.242;9.098;2023-04-12T12:06:01;1.20;;;0.80;;
16892;SDS011;8563;52.242;9.098;2023-04-12T12:08:35;2.83;;;1.00;;
16892;SDS011;8563;52.242;9.098;2023-04-12T12:11:07;1.20;;;0.70;;
16892;SDS011;8563;52.242;9.098;2023-04-12T12:13:43;1.03;;;0.70;;
16892;SDS011;8563;52.242;9.098;2023-04-12T12:16:16;0.70;;;0.60;;
16892;SDS011;8563;52.242;9.098;2023-04-12T12:18:49;0.63;;;0.50;;
16892;SDS011;8563;52.242;9.098;2023-04-12T12:21:22;1.60;;;0.77;;
16892;SDS011;8563;52.242;9.098;2023-04-12T12:23:56;1.27;;;0.67;;
16892;SDS011;8563;52.242;9.098;2023-04-12T12:26:28;1.10;;;0.70;;
16892;SDS011;8563;52.242;9.098;2023-04-12T12:29:00;0.87;;;0.70;;
16892;SDS011;8563;52.242;9.098;2023-04-12T12:31:33;1.70;;;0.77;;
16892;SDS011;8563;52.242;9.098;2023-04-12T12:34:06;0.60;;;0.60;;
16892;SDS011;8563;52.242;9.098;2023-04-12T12:36:39;0.97;;;0.70;;
16892;SDS011;8563;52.242;9.098;2023-04-12T12:39:12;1.43;;;0.80;;
16892;SDS011;8563;52.242;9.098;2023-04-12T12:41:51;1.13;;;0.90;;
16892;SDS011;8563;52.242;9.098;2023-04-12T12:44:24;0.70;;;0.70;;
16892;SDS011;8563;52.242;9.098;2023-04-12T12:46:57;0.90;;;0.70;;
16892;SDS011;8563;52.242;9.098;2023-04-12T12:49:30;1.23;;;0.80;;
16892;SDS011;8563;52.242;9.098;2023-04-12T12:52:04;0.80;;;0.70;;
16892;SDS011;8563;52.242;9.098;2023-04-12T12:54:36;1.63;;;0.90;;
16892;SDS011;8563;52.242;9.098;2023-04-12T12:57:09;1.57;;;0.80;;
16892;SDS011;8563;52.242;9.098;2023-04-12T12:59:41;2.20;;;0.90;;
16892;SDS011;8563;52.242;9.098;2023-04-12T13:02:13;2.37;;;1.00;;
16892;SDS011;8563;52.242;9.098;2023-04-12T13:04:47;1.97;;;0.70;;
16892;SDS011;8563;52.242;9.098;2023-04-12T13:07:20;0.80;;;0.77;;
16892;SDS011;8563;52.242;9.098;2023-04-12T13:09:53;1.27;;;0.80;;
16892;SDS011;8563;52.242;9.098;2023-04-12T13:12:25;0.60;;;0.60;;
16892;SDS011;8563;52.242;9.098;2023-04-12T13:14:57;1.23;;;0.80;;
16892;SDS011;8563;52.242;9.098;2023-04-12T13:17:30;0.83;;;0.70;;
16892;SDS011;8563;52.242;9.098;2023-04-12T13:20:03;0.97;;;0.73;;
16892;SDS011;8563;52.242;9.098;2023-04-12T13:22:37;1.43;;;0.63;;
16892;SDS011;8563;52.242;9.098;2023-04-12T13:25:09;0.80;;;0.80;;
16892;SDS011;8563;52.242;9.098;2023-04-12T13:27:41;1.10;;;0.70;;
16892;SDS011;8563;52.242;9.098;2023-04-12T13:30:14;0.97;;;0.87;;
16892;SDS011;8563;52.242;9.098;2023-04-12T13:32:46;1.87;;;0.70;;
16892;SDS011;8563;52.242;9.098;2023-04-12T13:35:18;1.00;;;0.80;;
16892;SDS011;8563;52.242;9.098;2023-04-12T13:37:52;1.37;;;0.80;;
16892;SDS011;8563;52.242;9.098;2023-04-12T13:40:24;1.00;;;0.80;;
16892;SDS011;8563;52.242;9.098;2023-04-12T13:42:56;0.90;;;0.87;;
16892;SDS011;8563;52.242;9.098;2023-04-12T13:45:28;1.80;;;0.70;;
16892;SDS011;8563;52.242;9.098;2023-04-12T13:48:00;2.70;;;0.90;;
16892;SDS011;8563;52.242;9.098;2023-04-12T13:50:32;1.93;;;0.63;;
16892;SDS011;8563;52.242;9.098;2023-04-12T13:53:06;1.40;;;1.00;;
16892;SDS011;8563;52.242;9.098;2023-04-12T13:55:38;1.13;;;1.03;;
16892;SDS011;8563;52.242;9.098;2023-04-12T13:58:10;2.93;;;0.90;;
16892;SDS011;8563;52.242;9.098;2023-04-12T14:00:42;1.10;;;0.87;;
16892;SDS011;8563;52.242;9.098;2023-04-12T14:03:15;1.03;;;1.00;;
16892;SDS011;8563;52.242;9.098;2023-04-12T14:05:47;1.10;;;0.93;;
16892;SDS011;8563;52.242;9.098;2023-04-12T14:08:21;1.73;;;1.10;;
16892;SDS011;8563;52.242;9.098;2023-04-12T14:10:53;1.10;;;0.90;;
16892;SDS011;8563;52.242;9.098;2023-04-12T14:13:25;2.60;;;1.07;;
16892;SDS011;8563;52.242;9.098;2023-04-12T14:15:58;2.50;;;1.23;;
16892;SDS011;8563;52.242;9.098;2023-04-12T14:18:30;1.20;;;1.10;;
16892;SDS011;8563;52.242;9.098;2023-04-12T14:21:02;1.37;;;1.23;;
16892;SDS011;8563;52.242;9.098;2023-04-12T14:23:36;1.87;;;1.00;;
16892;SDS011;8563;52.242;9.098;2023-04-12T14:26:12;1.13;;;0.90;;
16892;SDS011;8563;52.242;9.098;2023-04-12T14:28:45;2.07;;;1.40;;
16892;SDS011;8563;52.242;9.098;2023-04-12T14:31:19;1.07;;;1.03;;
16892;SDS011;8563;52.242;9.098;2023-04-12T14:33:51;1.17;;;1.07;;
16892;SDS011;8563;52.242;9.098;2023-04-12T14:36:23;2.37;;;1.20;;
16892;SDS011;8563;52.242;9.098;2023-04-12T14:38:58;1.17;;;1.07;;
16892;SDS011;8563;52.242;9.098;2023-04-12T14:41:30;1.90;;;1.20;;
16892;SDS011;8563;52.242;9.098;2023-04-12T14:44:03;2.07;;;1.30;;
16892;SDS011;8563;52.242;9.098;2023-04-12T14:46:35;2.10;;;1.40;;
16892;SDS011;8563;52.242;9.098;2023-04-12T14:49:08;1.70;;;1.20;;
16892;SDS011;8563;52.242;9.098;2023-04-12T14:51:40;1.40;;;1.30;;
16892;SDS011;8563;52.242;9.098;2023-04-12T14:54:13;1.40;;;1.30;;
16892;SDS011;8563;52.242;9.098;2023-04-12T14:56:45;1.30;;;1.20;;
16892;SDS011;8563;52.242;9.098;2023-04-12T14:59:18;2.33;;;1.50;;
16892;SDS011;8563;52.242;9.098;2023-04-12T15:01:50;1.60;;;1.43;;
16892;SDS011;8563;52.242;9.098;2023-04-12T15:04:23;2.40;;;1.50;;
16892;SDS011;8563;52.242;9.098;2023-04-12T15:06:55;1.77;;;1.20;;
16892;SDS011;8563;52.242;9.098;2023-04-12T15:09:30;1.60;;;1.50;;
16892;SDS011;8563;52.242;9.098;2023-04-12T15:12:02;1.67;;;1.27;;
16892;SDS011;8563;52.242;9.098;2023-04-12T15:14:34;1.63;;;1.40;;
16892;SDS011;8563;52.242;9.098;2023-04-12T15:17:07;1.40;;;1.30;;
16892;SDS011;8563;52.242;9.098;2023-04-12T15:19:40;1.73;;;1.60;;
16892;SDS011;8563;52.242;9.098;2023-04-12T15:22:12;2.63;;;1.90;;
16892;SDS011;8563;52.242;9.098;2023-04-12T15:24:45;2.00;;;1.80;;
16892;SDS011;8563;52.242;9.098;2023-04-12T15:27:18;2.10;;;1.90;;
16892;SDS011;8563;52.242;9.098;2023-04-12T15:29:50;1.60;;;1.50;;
16892;SDS011;8563;52.242;9.098;2023-04-12T15:32:22;2.60;;;1.80;;
16892;SDS011;8563;52.242;9.098;2023-04-12T15:34:56;2.23;;;1.50;;
16892;SDS011;8563;52.242;9.098;2023-04-12T15:37:29;3.17;;;1.50;;
16892;SDS011;8563;52.242;9.098;2023-04-12T15:40:05;1.63;;;1.50;;
16892;SDS011;8563;52.242;9.098;2023-04-12T15:42:43;1.40;;;1.30;;
16892;SDS011;8563;52.242;9.098;2023-04-12T15:45:15;1.67;;;1.47;;
16892;SDS011;8563;52.242;9.098;2023-04-12T15:47:47;1.70;;;1.60;;
16892;SDS011;8563;52.242;9.098;2023-04-12T15:50:19;3.30;;;1.73;;
16892;SDS011;8563;52.242;9.098;2023-04-12T15:52:51;1.93;;;1.73;;
16892;SDS011;8563;52.242;9.098;2023-04-12T15:55:26;1.80;;;1.70;;